Time;durP1;ratioP1;P1;durP2;ratioP2;P2;SDS_P1;SDS_P2;PMS_P1;PMS_P2;Temp;Humidity;BMP_temperature;BMP_pressure;BME280_temperature;BME280_humidity;BME280_pressure;Samples;Min_cycle;Max_cycle;Signal;HPM_P1;HPM_P2
2023/06/08 00:02:13;;;;;;;7.63;6.88;;;;;;;;;;4972540;28;20046;-73
2023/06/08 00:04:40;;;;;;;8.18;6.60;;;;;;;;;;4971958;28;20038;-74
2023/06/08 00:07:14;;;;;;;9.23;6.30;;;;;;;;;;4972406;28;20023;-73
2023/06/08 00:09:40;;;;;;;13.63;6.78;;;;;;;;;;4990082;28;20076;-74
2023/06/08 00:12:06;;;;;;;8.77;6.88;;;;;;;;;;4973141;28;20022;-74
2023/06/08 00:14:34;;;;;;;9.68;6.80;;;;;;;;;;4988863;28;20026;-74
2023/06/08 00:17:03;;;;;;;9.27;6.97;;;;;;;;;;4973063;28;20429;-74
2023/06/08 00:19:36;;;;;;;7.85;6.53;;;;;;;;;;4972442;28;20036;-74
2023/06/08 00:22:08;;;;;;;11.48;6.90;;;;;;;;;;4972728;28;20323;-74
2023/06/08 00:24:37;;;;;;;13.38;8.63;;;;;;;;;;4973477;28;20109;-76
2023/06/08 00:27:06;;;;;;;17.70;7.65;;;;;;;;;;4992365;28;20030;-74
2023/06/08 00:29:35;;;;;;;10.90;8.48;;;;;;;;;;4975849;28;20088;-74
2023/06/08 00:32:00;;;;;;;10.57;7.18;;;;;;;;;;4991970;28;20050;-73
2023/06/08 00:34:27;;;;;;;9.07;7.32;;;;;;;;;;4975890;28;20037;-74
2023/06/08 00:36:53;;;;;;;10.02;8.20;;;;;;;;;;4991674;28;20053;-74
2023/06/08 00:39:18;;;;;;;9.90;7.60;;;;;;;;;;4975715;28;20057;-74
2023/06/08 00:41:44;;;;;;;12.15;7.57;;;;;;;;;;4975228;28;20115;-74
2023/06/08 00:44:11;;;;;;;8.55;7.05;;;;;;;;;;4975491;28;20138;-74
2023/06/08 00:46:37;;;;;;;9.20;7.47;;;;;;;;;;4992992;28;20054;-74
2023/06/08 00:49:05;;;;;;;11.18;7.75;;;;;;;;;;4992614;28;20049;-74
2023/06/08 00:51:38;;;;;;;14.32;7.90;;;;;;;;;;4975222;28;20037;-74
2023/06/08 00:54:04;;;;;;;9.52;7.82;;;;;;;;;;4992914;28;20026;-74
2023/06/08 00:56:32;;;;;;;11.98;6.95;;;;;;;;;;4992209;28;20026;-74
2023/06/08 00:59:00;;;;;;;8.52;6.88;;;;;;;;;;4975356;28;20113;-74
2023/06/08 01:01:29;;;;;;;10.00;7.00;;;;;;;;;;4992020;28;20026;-74
2023/06/08 01:04:05;;;;;;;8.90;7.22;;;;;;;;;;4976334;28;20066;-74
2023/06/08 01:06:53;;;;;;;9.60;7.05;;;;;;;;;;4993422;28;20065;-74
2023/06/08 01:09:36;;;;;;;14.98;6.90;;;;;;;;;;4978355;28;20034;-75
2023/06/08 01:12:24;;;;;;;9.80;6.85;;;;;;;;;;4994840;28;20033;-75
2023/06/08 01:14:56;;;;;;;9.38;6.95;;;;;;;;;;4977908;28;20026;-75
2023/06/08 01:17:27;;;;;;;8.55;7.07;;;;;;;;;;4976919;28;20046;-75
2023/06/08 01:20:32;;;;;;;7.53;6.38;;;;;;;;;;4992937;28;20026;-75
2023/06/08 01:23:09;;;;;;;9.40;6.78;;;;;;;;;;4946054;28;20068;-75
2023/06/08 01:25:38;;;;;;;7.38;6.53;;;;;;;;;;4974973;28;20464;-74
2023/06/08 01:28:12;;;;;;;11.70;6.95;;;;;;;;;;4974916;28;20347;-75
2023/06/08 01:30:51;;;;;;;7.20;6.50;;;;;;;;;;4992445;28;20044;-76
2023/06/08 01:33:29;;;;;;;8.55;6.55;;;;;;;;;;4974301;28;20042;-75
2023/06/08 01:36:23;;;;;;;7.93;7.13;;;;;;;;;;4990924;28;20118;-75
2023/06/08 01:39:09;;;;;;;8.48;6.72;;;;;;;;;;4974494;28;20113;-74
2023/06/08 01:41:39;;;;;;;11.65;7.47;;;;;;;;;;4992456;28;20026;-74
2023/06/08 01:44:08;;;;;;;7.90;7.10;;;;;;;;;;4992604;28;20033;-73
2023/06/08 01:46:33;;;;;;;9.68;7.70;;;;;;;;;;4974782;28;20022;-74
2023/06/08 01:49:03;;;;;;;11.27;7.35;;;;;;;;;;4992025;28;20057;-74
2023/06/08 01:51:30;;;;;;;11.18;7.45;;;;;;;;;;4974393;28;20022;-74
2023/06/08 01:54:03;;;;;;;13.38;7.45;;;;;;;;;;4991812;28;20034;-74
2023/06/08 01:56:31;;;;;;;10.77;7.22;;;;;;;;;;4974495;28;20105;-74
2023/06/08 01:58:56;;;;;;;10.27;7.18;;;;;;;;;;4991826;28;20360;-74
2023/06/08 02:01:22;;;;;;;11.70;7.70;;;;;;;;;;4974331;28;20096;-74
2023/06/08 02:03:47;;;;;;;10.95;7.10;;;;;;;;;;4991762;28;20457;-75
2023/06/08 02:06:14;;;;;;;10.27;7.88;;;;;;;;;;4973715;28;20046;-75
2023/06/08 02:08:39;;;;;;;10.20;7.63;;;;;;;;;;4990208;28;20537;-74
2023/06/08 02:11:05;;;;;;;9.55;7.68;;;;;;;;;;4974932;28;20124;-74
2023/06/08 02:13:34;;;;;;;8.77;7.38;;;;;;;;;;4994063;28;20065;-73
2023/06/08 02:16:00;;;;;;;9.88;8.30;;;;;;;;;;4993101;28;20056;-74
2023/06/08 02:18:26;;;;;;;9.25;7.75;;;;;;;;;;4974024;28;20042;-75
2023/06/08 02:20:52;;;;;;;8.57;7.53;;;;;;;;;;4974540;28;20448;-75
2023/06/08 02:23:18;;;;;;;11.93;7.95;;;;;;;;;;4993028;28;20113;-74
2023/06/08 02:25:43;;;;;;;9.25;7.57;;;;;;;;;;5010947;28;20097;-73
2023/06/08 02:28:09;;;;;;;9.40;7.80;;;;;;;;;;4993862;28;20045;-75
2023/06/08 02:30:34;;;;;;;10.70;8.48;;;;;;;;;;4993993;28;20034;-75
2023/06/08 02:33:00;;;;;;;12.50;7.95;;;;;;;;;;4993787;28;20041;-75
2023/06/08 02:35:25;;;;;;;11.80;7.30;;;;;;;;;;5011441;28;20032;-74
2023/06/08 02:37:51;;;;;;;12.45;7.97;;;;;;;;;;4993201;28;20080;-75
2023/06/08 02:40:17;;;;;;;11.57;8.27;;;;;;;;;;4993213;28;20112;-74
2023/06/08 02:42:42;;;;;;;9.02;7.53;;;;;;;;;;5010796;28;20026;-75
2023/06/08 02:45:08;;;;;;;11.50;7.90;;;;;;;;;;4992791;28;20038;-75
2023/06/08 02:47:34;;;;;;;11.93;8.63;;;;;;;;;;5008840;28;20690;-73
2023/06/08 02:49:59;;;;;;;9.27;8.32;;;;;;;;;;4992707;28;20080;-74
2023/06/08 02:52:25;;;;;;;13.55;8.48;;;;;;;;;;5010564;28;20083;-75
2023/06/08 02:54:50;;;;;;;10.77;7.90;;;;;;;;;;4993191;28;20030;-75
2023/06/08 02:57:16;;;;;;;16.27;8.52;;;;;;;;;;4993884;28;20117;-73
2023/06/08 02:59:42;;;;;;;10.55;8.50;;;;;;;;;;4993617;28;20119;-75
2023/06/08 03:02:08;;;;;;;10.57;8.43;;;;;;;;;;4993284;28;20058;-75
2023/06/08 03:04:33;;;;;;;12.70;9.07;;;;;;;;;;5010369;28;20026;-74
2023/06/08 03:06:59;;;;;;;12.18;8.20;;;;;;;;;;4994723;28;20467;-75
2023/06/08 03:09:28;;;;;;;11.05;8.75;;;;;;;;;;5012959;28;20022;-74
2023/06/08 03:11:54;;;;;;;12.23;7.75;;;;;;;;;;4994752;28;20029;-75
2023/06/08 03:14:20;;;;;;;15.02;8.30;;;;;;;;;;5012887;28;20144;-75
2023/06/08 03:16:46;;;;;;;19.05;9.25;;;;;;;;;;4998333;28;20049;-75
2023/06/08 03:19:15;;;;;;;17.33;9.20;;;;;;;;;;4998114;28;20486;-75
2023/06/08 03:21:43;;;;;;;12.43;9.00;;;;;;;;;;4995440;28;20231;-73
2023/06/08 03:24:10;;;;;;;12.38;9.55;;;;;;;;;;4994592;28;20160;-74
2023/06/08 03:26:35;;;;;;;9.38;8.15;;;;;;;;;;4994515;28;20025;-74
2023/06/08 03:29:01;;;;;;;14.15;8.95;;;;;;;;;;4994322;28;20025;-75
2023/06/08 03:31:29;;;;;;;13.13;9.25;;;;;;;;;;4993004;28;20117;-75
2023/06/08 03:33:55;;;;;;;11.15;8.75;;;;;;;;;;5010966;28;20033;-75
2023/06/08 03:36:20;;;;;;;12.80;8.88;;;;;;;;;;4993515;28;20029;-74
2023/06/08 03:38:46;;;;;;;14.07;8.23;;;;;;;;;;4993390;28;20533;-74
2023/06/08 03:41:13;;;;;;;12.10;9.63;;;;;;;;;;5010289;28;20053;-75
2023/06/08 03:43:38;;;;;;;12.25;9.18;;;;;;;;;;5009786;28;20484;-74
2023/06/08 03:46:04;;;;;;;12.70;8.60;;;;;;;;;;5009184;28;20101;-74
2023/06/08 03:48:30;;;;;;;13.15;8.65;;;;;;;;;;4992452;28;20036;-74
2023/06/08 03:50:55;;;;;;;16.85;9.63;;;;;;;;;;4992032;28;20030;-75
2023/06/08 03:53:21;;;;;;;9.63;8.18;;;;;;;;;;5009998;28;20029;-74
2023/06/08 03:55:47;;;;;;;17.45;8.98;;;;;;;;;;5009586;28;20029;-76
2023/06/08 03:58:12;;;;;;;12.68;9.60;;;;;;;;;;4991643;28;20613;-74
2023/06/08 04:00:38;;;;;;;9.90;8.48;;;;;;;;;;4994323;28;20119;-74
2023/06/08 04:03:05;;;;;;;12.57;9.18;;;;;;;;;;4995638;28;20412;-75
2023/06/08 04:05:30;;;;;;;12.98;8.40;;;;;;;;;;4996110;28;20098;-75
2023/06/08 04:07:58;;;;;;;12.25;9.30;;;;;;;;;;4996143;28;20450;-75
2023/06/08 04:10:23;;;;;;;11.45;9.13;;;;;;;;;;5013660;28;20026;-75
2023/06/08 04:12:49;;;;;;;13.05;9.23;;;;;;;;;;4995377;28;20168;-75
2023/06/08 04:15:14;;;;;;;15.52;9.90;;;;;;;;;;5011627;28;20121;-74
2023/06/08 04:17:41;;;;;;;14.38;9.50;;;;;;;;;;5013098;28;20049;-76
2023/06/08 04:20:10;;;;;;;13.15;9.65;;;;;;;;;;4994929;28;20029;-74
2023/06/08 04:22:36;;;;;;;13.18;9.40;;;;;;;;;;5013392;28;20477;-74
2023/06/08 04:25:02;;;;;;;18.90;9.82;;;;;;;;;;4994955;28;20077;-74
2023/06/08 04:27:27;;;;;;;11.43;9.55;;;;;;;;;;4995484;28;20033;-74
2023/06/08 04:29:53;;;;;;;13.10;9.90;;;;;;;;;;4995055;28;20025;-74
2023/06/08 04:32:19;;;;;;;15.75;9.15;;;;;;;;;;5013361;28;20025;-75
2023/06/08 04:34:44;;;;;;;13.05;9.27;;;;;;;;;;4995495;28;20033;-76
2023/06/08 04:37:10;;;;;;;11.95;9.75;;;;;;;;;;4995057;28;20052;-74
2023/06/08 04:39:35;;;;;;;13.02;10.18;;;;;;;;;;4995686;28;20080;-75
2023/06/08 04:42:02;;;;;;;11.93;9.55;;;;;;;;;;4995591;28;20430;-75
2023/06/08 04:44:33;;;;;;;16.10;9.13;;;;;;;;;;4995522;28;20026;-75
2023/06/08 04:46:59;;;;;;;12.48;9.73;;;;;;;;;;4995064;28;20474;-75
2023/06/08 04:49:30;;;;;;;15.43;9.80;;;;;;;;;;5013016;28;20037;-74
2023/06/08 04:51:58;;;;;;;16.90;9.68;;;;;;;;;;4995355;28;20026;-74
2023/06/08 04:54:25;;;;;;;11.68;9.82;;;;;;;;;;4995169;28;20037;-75
2023/06/08 04:56:53;;;;;;;13.80;9.38;;;;;;;;;;5012666;28;20028;-74
2023/06/08 04:59:19;;;;;;;14.07;9.77;;;;;;;;;;5013187;28;20478;-75
2023/06/08 05:01:45;;;;;;;14.13;9.70;;;;;;;;;;5013517;28;20545;-74
2023/06/08 05:04:11;;;;;;;15.65;9.38;;;;;;;;;;5013087;28;20109;-75
2023/06/08 05:06:37;;;;;;;11.55;9.70;;;;;;;;;;5007242;28;20026;-74
2023/06/08 05:09:03;;;;;;;13.23;9.75;;;;;;;;;;4993283;28;20125;-76
2023/06/08 05:11:28;;;;;;;13.82;10.50;;;;;;;;;;4976000;28;20041;-75
2023/06/08 05:14:31;;;;;;;14.77;10.63;;;;;;;;;;4986466;28;20088;-76
2023/06/08 05:16:57;;;;;;;17.48;10.27;;;;;;;;;;4973160;28;20416;-71
2023/06/08 05:19:24;;;;;;;14.45;9.82;;;;;;;;;;5007685;28;20033;-73
2023/06/08 05:21:49;;;;;;;13.02;10.23;;;;;;;;;;4992596;28;20034;-73
2023/06/08 05:24:15;;;;;;;19.73;10.65;;;;;;;;;;4993276;28;20036;-71
2023/06/08 05:26:41;;;;;;;19.92;10.63;;;;;;;;;;4990866;28;20635;-73
2023/06/08 05:29:08;;;;;;;15.55;9.52;;;;;;;;;;5008221;28;20104;-72
2023/06/08 05:31:34;;;;;;;16.45;10.80;;;;;;;;;;4994033;28;20605;-71
2023/06/08 05:33:59;;;;;;;22.30;11.18;;;;;;;;;;4992426;28;20029;-75
2023/06/08 05:36:25;;;;;;;16.05;10.27;;;;;;;;;;5014974;28;20030;-74
2023/06/08 05:38:51;;;;;;;13.70;10.77;;;;;;;;;;5009464;28;20034;-72
2023/06/08 05:41:16;;;;;;;15.85;11.23;;;;;;;;;;4987638;28;20522;-73
2023/06/08 05:43:42;;;;;;;16.45;10.27;;;;;;;;;;4996094;28;20110;-72
2023/06/08 05:46:08;;;;;;;16.02;11.07;;;;;;;;;;5006130;28;20471;-72
2023/06/08 05:48:34;;;;;;;15.18;10.68;;;;;;;;;;4986029;28;20575;-72
2023/06/08 05:51:03;;;;;;;12.05;9.90;;;;;;;;;;5010290;28;20026;-74
2023/06/08 05:53:29;;;;;;;14.13;11.05;;;;;;;;;;4997600;28;20026;-72
2023/06/08 05:55:56;;;;;;;13.98;10.40;;;;;;;;;;4982039;28;20026;-72
2023/06/08 05:58:23;;;;;;;19.95;13.75;;;;;;;;;;4990310;28;20029;-73
2023/06/08 06:00:49;;;;;;;15.07;10.73;;;;;;;;;;5012216;28;20191;-72
2023/06/08 06:03:15;;;;;;;16.30;10.60;;;;;;;;;;4989480;28;20113;-73
2023/06/08 06:05:41;;;;;;;17.70;11.30;;;;;;;;;;4990833;28;20041;-73
2023/06/08 06:08:06;;;;;;;17.30;10.40;;;;;;;;;;4973659;28;20041;-74
2023/06/08 06:10:32;;;;;;;12.93;10.30;;;;;;;;;;4980045;28;20069;-73
2023/06/08 06:12:58;;;;;;;16.40;10.50;;;;;;;;;;4989107;28;20042;-74
2023/06/08 06:15:25;;;;;;;13.32;10.52;;;;;;;;;;4991708;28;20033;-77
2023/06/08 06:17:52;;;;;;;13.48;10.05;;;;;;;;;;4999319;28;20080;-71
2023/06/08 06:20:18;;;;;;;14.18;10.38;;;;;;;;;;5000930;28;20088;-77
2023/06/08 06:22:45;;;;;;;14.45;10.18;;;;;;;;;;4988603;28;20026;-75
2023/06/08 06:25:10;;;;;;;13.82;10.85;;;;;;;;;;4984604;28;20386;-72
2023/06/08 06:27:36;;;;;;;20.35;11.30;;;;;;;;;;4998060;28;20029;-72
2023/06/08 06:30:02;;;;;;;16.70;10.68;;;;;;;;;;5004816;28;20038;-75
2023/06/08 06:32:29;;;;;;;15.10;10.65;;;;;;;;;;4992597;28;20048;-75
2023/06/08 06:34:54;;;;;;;13.30;10.80;;;;;;;;;;4987766;28;20603;-74
2023/06/08 06:37:20;;;;;;;18.88;11.43;;;;;;;;;;4977109;28;20497;-77
2023/06/08 06:39:49;;;;;;;16.30;10.68;;;;;;;;;;4987999;28;20049;-73
2023/06/08 06:42:15;;;;;;;18.50;11.05;;;;;;;;;;4984589;28;20494;-72
2023/06/08 06:44:44;;;;;;;17.45;10.77;;;;;;;;;;5003080;28;20109;-74
2023/06/08 06:47:10;;;;;;;12.35;10.40;;;;;;;;;;4974350;28;20029;-74
2023/06/08 06:49:37;;;;;;;14.10;10.60;;;;;;;;;;4980336;28;20024;-76
2023/06/08 06:52:03;;;;;;;14.43;10.63;;;;;;;;;;4987290;28;20034;-78
2023/06/08 06:54:28;;;;;;;17.52;12.52;;;;;;;;;;4952904;28;20040;-75
2023/06/08 06:56:57;;;;;;;23.33;13.30;;;;;;;;;;4982927;28;20052;-75
2023/06/08 06:59:23;;;;;;;20.67;10.57;;;;;;;;;;4987802;28;20346;-75
2023/06/08 07:01:48;;;;;;;13.27;11.38;;;;;;;;;;4979377;28;20069;-73
2023/06/08 07:04:15;;;;;;;13.82;10.68;;;;;;;;;;5007145;28;20026;-78
2023/06/08 07:06:42;;;;;;;18.63;11.27;;;;;;;;;;4985258;28;20450;-78
2023/06/08 07:09:09;;;;;;;14.93;11.15;;;;;;;;;;4986203;28;20041;-78
2023/06/08 07:11:36;;;;;;;14.10;10.18;;;;;;;;;;5005808;28;20034;-77
2023/06/08 07:14:01;;;;;;;13.43;10.82;;;;;;;;;;4992367;28;20040;-76
2023/06/08 07:16:27;;;;;;;15.10;11.13;;;;;;;;;;5003112;28;20033;-75
2023/06/08 07:18:52;;;;;;;15.77;11.88;;;;;;;;;;4984183;28;20137;-77
2023/06/08 07:21:20;;;;;;;15.40;10.60;;;;;;;;;;4982066;28;20025;-75
2023/06/08 07:23:48;;;;;;;13.60;11.32;;;;;;;;;;5011529;28;20022;-76
2023/06/08 07:26:15;;;;;;;16.90;10.60;;;;;;;;;;4963133;28;20453;-74
2023/06/08 07:28:59;;;;;;;16.05;10.80;;;;;;;;;;5000299;28;20436;-75
2023/06/08 07:31:26;;;;;;;14.73;11.18;;;;;;;;;;4998596;28;20312;-76
2023/06/08 07:33:54;;;;;;;16.45;10.13;;;;;;;;;;4985288;28;20086;-75
2023/06/08 07:36:22;;;;;;;18.42;10.30;;;;;;;;;;4980914;28;20425;-74
2023/06/08 07:38:50;;;;;;;14.13;10.63;;;;;;;;;;4988061;28;20089;-76
2023/06/08 07:41:20;;;;;;;23.45;10.85;;;;;;;;;;4983053;28;20544;-73
2023/06/08 07:43:58;;;;;;;15.48;10.95;;;;;;;;;;5002175;28;20046;-77
2023/06/08 07:46:24;;;;;;;19.77;13.00;;;;;;;;;;4985228;28;20049;-77
2023/06/08 07:48:50;;;;;;;16.85;11.45;;;;;;;;;;4982437;28;20036;-75
2023/06/08 07:51:15;;;;;;;16.83;11.90;;;;;;;;;;4988158;28;20029;-75
2023/06/08 07:53:42;;;;;;;19.50;11.52;;;;;;;;;;5007900;28;20394;-76
2023/06/08 07:56:07;;;;;;;16.20;11.40;;;;;;;;;;4981636;28;20041;-76
2023/06/08 07:58:33;;;;;;;17.33;11.60;;;;;;;;;;4985249;28;20041;-75
2023/06/08 08:01:00;;;;;;;18.88;11.13;;;;;;;;;;4974915;28;20164;-75
2023/06/08 08:03:27;;;;;;;22.58;12.13;;;;;;;;;;4985962;28;20065;-76
2023/06/08 08:05:52;;;;;;;16.83;11.77;;;;;;;;;;5003136;28;20304;-76
2023/06/08 08:08:18;;;;;;;18.20;11.02;;;;;;;;;;4985736;28;20026;-77
2023/06/08 08:10:44;;;;;;;19.38;12.25;;;;;;;;;;4978807;28;20053;-76
2023/06/08 08:13:11;;;;;;;16.42;11.65;;;;;;;;;;4983902;28;20026;-78
2023/06/08 08:15:42;;;;;;;15.48;10.85;;;;;;;;;;4984940;28;20080;-75
2023/06/08 08:18:08;;;;;;;16.52;11.18;;;;;;;;;;5002855;28;20025;-75
2023/06/08 08:20:33;;;;;;;13.55;11.05;;;;;;;;;;4977421;28;20071;-76
2023/06/08 08:22:59;;;;;;;15.85;11.30;;;;;;;;;;4984910;28;20041;-79
2023/06/08 08:25:24;;;;;;;20.25;10.52;;;;;;;;;;5000162;28;20490;-78
2023/06/08 08:27:50;;;;;;;86.72;16.77;;;;;;;;;;4974469;28;20056;-79
2023/06/08 08:30:16;;;;;;;15.18;10.93;;;;;;;;;;4982074;28;20410;-77
2023/06/08 08:32:41;;;;;;;24.08;11.63;;;;;;;;;;4990577;28;20044;-77
2023/06/08 08:35:10;;;;;;;16.05;10.75;;;;;;;;;;5001521;28;20474;-76
2023/06/08 08:37:37;;;;;;;17.92;9.93;;;;;;;;;;5008263;28;20061;-77
2023/06/08 08:40:05;;;;;;;14.88;10.30;;;;;;;;;;4986647;28;20986;-76
2023/06/08 08:42:36;;;;;;;16.88;9.93;;;;;;;;;;5002391;28;20034;-76
2023/06/08 08:45:07;;;;;;;12.65;10.90;;;;;;;;;;4985161;28;20121;-75
2023/06/08 08:47:32;;;;;;;19.57;11.30;;;;;;;;;;4984853;28;20037;-76
2023/06/08 08:50:09;;;;;;;17.25;11.52;;;;;;;;;;4983151;28;20605;-76
2023/06/08 08:52:38;;;;;;;18.20;10.85;;;;;;;;;;5009188;28;20042;-78
2023/06/08 08:55:06;;;;;;;15.40;10.30;;;;;;;;;;5004897;28;20037;-75
2023/06/08 08:57:32;;;;;;;18.88;11.20;;;;;;;;;;4974766;28;20042;-79
2023/06/08 09:00:00;;;;;;;18.27;9.52;;;;;;;;;;4974656;28;20053;-74
2023/06/08 09:02:26;;;;;;;15.77;10.20;;;;;;;;;;5000843;28;20053;-76
2023/06/08 09:04:53;;;;;;;15.77;9.60;;;;;;;;;;5008792;28;20571;-75
2023/06/08 09:07:21;;;;;;;14.18;8.57;;;;;;;;;;5001810;28;20037;-75
2023/06/08 09:10:16;;;;;;;11.13;7.25;;;;;;;;;;4997377;28;20514;-74
2023/06/08 09:12:43;;;;;;;13.27;7.40;;;;;;;;;;5001366;28;20030;-74
2023/06/08 09:15:11;;;;;;;14.23;8.43;;;;;;;;;;4983402;28;20034;-74
2023/06/08 09:17:40;;;;;;;11.30;6.90;;;;;;;;;;4986175;28;20038;-74
2023/06/08 09:20:11;;;;;;;11.05;7.25;;;;;;;;;;4979718;28;20463;-74
2023/06/08 09:22:39;;;;;;;10.48;6.75;;;;;;;;;;4983037;28;20041;-73
2023/06/08 09:25:06;;;;;;;10.48;6.90;;;;;;;;;;5001576;28;20107;-75
2023/06/08 09:27:37;;;;;;;15.13;6.78;;;;;;;;;;4984441;28;20046;-74
2023/06/08 09:30:24;;;;;;;;;;;;;;;;;;4978691;28;20026;-77
2023/06/08 09:32:51;;;;;;;10.32;5.95;;;;;;;;;;4991284;28;19991;-75
2023/06/08 09:35:23;;;;;;;10.90;6.18;;;;;;;;;;4970288;28;20049;-74
2023/06/08 09:37:50;;;;;;;9.00;5.97;;;;;;;;;;4989191;28;20030;-73
2023/06/08 09:40:21;;;;;;;5.47;4.68;;;;;;;;;;4982681;28;20030;-73
2023/06/08 09:42:53;;;;;;;8.40;6.35;;;;;;;;;;5000355;28;20037;-75
2023/06/08 09:45:21;;;;;;;11.10;5.80;;;;;;;;;;5005575;28;20038;-76
2023/06/08 09:47:47;;;;;;;10.57;5.63;;;;;;;;;;5011701;28;20132;-77
2023/06/08 09:50:15;;;;;;;10.43;5.60;;;;;;;;;;5002393;28;20022;-78
2023/06/08 09:52:42;;;;;;;11.05;5.65;;;;;;;;;;5003115;28;20034;-77
2023/06/08 09:55:08;;;;;;;9.52;5.00;;;;;;;;;;5018915;28;20070;-75
2023/06/08 09:57:41;;;;;;;11.38;5.40;;;;;;;;;;5011613;28;20244;-76
2023/06/08 10:00:14;;;;;;;10.15;5.40;;;;;;;;;;5010062;28;20573;-76
2023/06/08 10:03:02;;;;;;;6.03;5.28;;;;;;;;;;5008060;28;20223;-75
2023/06/08 10:05:30;;;;;;;6.97;5.28;;;;;;;;;;5008103;28;20558;-79
2023/06/08 10:07:58;;;;;;;7.28;4.75;;;;;;;;;;4990971;28;20145;-79
2023/06/08 10:10:33;;;;;;;9.30;4.97;;;;;;;;;;5006617;28;20022;-78
2023/06/08 10:12:59;;;;;;;6.93;4.80;;;;;;;;;;5012742;28;20025;-81
2023/06/08 10:15:27;;;;;;;18.70;6.93;;;;;;;;;;4983604;28;20026;-76
2023/06/08 10:17:53;;;;;;;10.15;5.70;;;;;;;;;;4986743;28;20045;-78
2023/06/08 10:20:20;;;;;;;15.27;6.85;;;;;;;;;;4993342;28;20033;-76
2023/06/08 10:22:47;;;;;;;8.10;5.93;;;;;;;;;;4978173;28;20030;-76
2023/06/08 10:25:16;;;;;;;8.23;6.55;;;;;;;;;;4977750;28;20040;-77
2023/06/08 10:27:52;;;;;;;6.35;5.75;;;;;;;;;;4996404;28;20033;-76
2023/06/08 10:30:44;;;;;;;10.23;5.35;;;;;;;;;;5015045;28;20040;-77
2023/06/08 10:33:23;;;;;;;6.90;4.32;;;;;;;;;;4979727;28;20034;-77
2023/06/08 10:36:19;;;;;;;5.70;4.28;;;;;;;;;;4988235;28;20544;-77
2023/06/08 10:38:59;;;;;;;7.78;5.25;;;;;;;;;;4996101;28;20042;-76
2023/06/08 10:41:43;;;;;;;10.18;5.57;;;;;;;;;;4976813;28;20079;-78
2023/06/08 10:44:32;;;;;;;5.95;5.28;;;;;;;;;;4990934;28;20501;-77
2023/06/08 10:47:09;;;;;;;7.40;5.35;;;;;;;;;;5003886;28;20037;-78
2023/06/08 10:49:39;;;;;;;5.95;4.72;;;;;;;;;;4999240;28;20297;-79
2023/06/08 10:52:09;;;;;;;12.75;5.80;;;;;;;;;;4986922;28;20084;-75
2023/06/08 10:54:51;;;;;;;14.77;5.15;;;;;;;;;;5006681;28;20113;-79
2023/06/08 10:57:36;;;;;;;9.50;4.68;;;;;;;;;;4989800;28;20030;-79
2023/06/08 11:00:25;;;;;;;5.65;4.68;;;;;;;;;;4977542;28;20042;-77
2023/06/08 11:02:52;;;;;;;9.02;5.38;;;;;;;;;;5006679;28;20033;-75
2023/06/08 11:05:18;;;;;;;6.47;5.00;;;;;;;;;;4981699;28;20367;-75
2023/06/08 11:07:44;;;;;;;6.07;5.40;;;;;;;;;;4989223;28;20038;-76
2023/06/08 11:10:10;;;;;;;8.35;5.10;;;;;;;;;;4988422;28;20135;-79
2023/06/08 11:12:37;;;;;;;10.90;5.63;;;;;;;;;;4972710;28;20030;-76
2023/06/08 11:15:02;;;;;;;6.25;4.80;;;;;;;;;;4990466;28;20052;-78
2023/06/08 11:17:28;;;;;;;7.80;5.03;;;;;;;;;;4981983;28;20494;-79
2023/06/08 11:19:54;;;;;;;10.57;4.72;;;;;;;;;;4985552;28;20039;-77
2023/06/08 11:22:22;;;;;;;4.95;4.20;;;;;;;;;;4989417;28;20029;-77
2023/06/08 11:24:47;;;;;;;8.02;4.70;;;;;;;;;;5004049;28;20065;-77
2023/06/08 11:27:17;;;;;;;8.60;4.70;;;;;;;;;;4990024;28;20052;-78
2023/06/08 11:29:47;;;;;;;6.35;4.40;;;;;;;;;;4991247;28;20481;-76
2023/06/08 11:32:15;;;;;;;8.33;4.87;;;;;;;;;;4987958;28;20030;-77
2023/06/08 11:34:49;;;;;;;5.97;4.90;;;;;;;;;;4988061;28;20120;-78
2023/06/08 11:37:17;;;;;;;7.47;4.40;;;;;;;;;;5003618;28;20422;-77
2023/06/08 11:39:47;;;;;;;8.52;4.93;;;;;;;;;;4987134;28;20056;-77
2023/06/08 11:42:13;;;;;;;5.80;5.07;;;;;;;;;;4986224;28;20037;-77
2023/06/08 11:44:40;;;;;;;7.65;5.45;;;;;;;;;;5004406;28;20033;-75
2023/06/08 11:47:08;;;;;;;9.35;4.85;;;;;;;;;;4994318;28;20026;-77
2023/06/08 11:49:53;;;;;;;8.20;4.40;;;;;;;;;;4996532;28;20025;-77
2023/06/08 11:52:23;;;;;;;8.30;4.30;;;;;;;;;;4983951;28;20080;-78
2023/06/08 11:54:57;;;;;;;13.80;5.22;;;;;;;;;;4988767;28;20543;-77
2023/06/08 11:57:38;;;;;;;7.43;5.10;;;;;;;;;;4988044;28;20037;-78
2023/06/08 12:00:09;;;;;;;6.93;3.95;;;;;;;;;;5013135;28;20038;-78
2023/06/08 12:02:38;;;;;;;6.57;4.00;;;;;;;;;;4988138;28;20391;-76
2023/06/08 12:05:06;;;;;;;4.00;3.35;;;;;;;;;;4979645;28;20521;-77
2023/06/08 12:07:35;;;;;;;7.88;3.58;;;;;;;;;;4989586;28;20823;-77
2023/06/08 12:10:01;;;;;;;6.28;3.40;;;;;;;;;;4992978;28;20068;-78
2023/06/08 12:12:30;;;;;;;7.57;3.72;;;;;;;;;;5005375;28;20049;-80
2023/06/08 12:14:56;;;;;;;6.68;3.25;;;;;;;;;;5003453;28;20022;-74
2023/06/08 12:17:26;;;;;;;6.35;3.33;;;;;;;;;;4986908;28;20030;-77
2023/06/08 12:19:55;;;;;;;6.60;3.00;;;;;;;;;;4986361;28;20033;-76
2023/06/08 12:22:21;;;;;;;3.38;2.85;;;;;;;;;;5010563;28;20047;-78
2023/06/08 12:24:47;;;;;;;5.25;3.38;;;;;;;;;;4992495;28;20030;-75
2023/06/08 12:27:14;;;;;;;10.15;4.40;;;;;;;;;;5005582;28;20034;-76
2023/06/08 12:29:41;;;;;;;8.63;3.30;;;;;;;;;;5009775;28;20028;-77
2023/06/08 12:32:07;;;;;;;5.55;3.05;;;;;;;;;;4994636;28;20025;-77
2023/06/08 12:34:33;;;;;;;7.47;3.13;;;;;;;;;;4997012;28;20416;-80
2023/06/08 12:37:00;;;;;;;5.68;3.92;;;;;;;;;;5018897;28;20033;-77
2023/06/08 12:39:25;;;;;;;5.90;3.35;;;;;;;;;;4995254;28;20033;-77
2023/06/08 12:41:51;;;;;;;7.03;3.67;;;;;;;;;;5002987;28;20045;-78
2023/06/08 12:44:17;;;;;;;8.50;3.22;;;;;;;;;;5005010;28;20427;-78
2023/06/08 12:46:43;;;;;;;5.85;3.90;;;;;;;;;;4977205;28;20438;-80
2023/06/08 12:49:09;;;;;;;5.57;3.40;;;;;;;;;;4978084;28;20026;-78
2023/06/08 12:51:37;;;;;;;5.63;3.05;;;;;;;;;;5011382;28;20055;-78
2023/06/08 12:54:02;;;;;;;4.82;3.17;;;;;;;;;;4994852;28;20038;-79
2023/06/08 12:56:28;;;;;;;9.50;3.72;;;;;;;;;;4993931;28;20048;-78
2023/06/08 12:58:54;;;;;;;6.63;3.72;;;;;;;;;;5010804;28;20030;-77
2023/06/08 13:01:22;;;;;;;10.18;4.18;;;;;;;;;;4969894;28;20051;-78
2023/06/08 13:03:48;;;;;;;5.40;3.25;;;;;;;;;;4972345;28;20054;-77
2023/06/08 13:06:13;;;;;;;4.50;3.55;;;;;;;;;;4964459;28;20046;-79
2023/06/08 13:08:39;;;;;;;5.28;3.58;;;;;;;;;;4971376;28;20037;-77
2023/06/08 13:11:05;;;;;;;7.25;4.68;;;;;;;;;;4969442;28;20026;-78
2023/06/08 13:13:32;;;;;;;13.77;4.75;;;;;;;;;;4964764;28;20538;-79
2023/06/08 13:15:58;;;;;;;17.13;4.88;;;;;;;;;;4970256;28;20119;-78
2023/06/08 13:18:25;;;;;;;4.70;3.65;;;;;;;;;;4970448;28;20070;-78
2023/06/08 13:20:53;;;;;;;5.03;3.30;;;;;;;;;;4971501;28;20027;-75
2023/06/08 13:23:20;;;;;;;6.30;2.88;;;;;;;;;;4969975;28;20046;-80
2023/06/08 13:25:46;;;;;;;9.00;4.32;;;;;;;;;;4970307;28;20476;-78
2023/06/08 13:28:13;;;;;;;5.22;3.28;;;;;;;;;;4969515;28;20022;-77
2023/06/08 13:30:40;;;;;;;7.43;2.97;;;;;;;;;;4981499;28;20075;-77
2023/06/08 13:33:05;;;;;;;7.15;4.03;;;;;;;;;;4977713;28;20054;-76
2023/06/08 13:35:31;;;;;;;7.55;3.70;;;;;;;;;;4979047;28;20487;-78
2023/06/08 13:38:00;;;;;;;9.02;3.85;;;;;;;;;;4975721;28;20034;-76
2023/06/08 13:40:31;;;;;;;8.00;4.18;;;;;;;;;;4973695;28;20042;-77
2023/06/08 13:42:57;;;;;;;8.63;3.80;;;;;;;;;;4974753;28;20097;-74
2023/06/08 13:45:23;;;;;;;12.63;3.83;;;;;;;;;;4971833;28;20034;-78
2023/06/08 13:47:49;;;;;;;9.77;3.95;;;;;;;;;;4972956;28;20026;-77
2023/06/08 13:50:14;;;;;;;8.00;3.90;;;;;;;;;;4974854;28;20119;-79
2023/06/08 13:52:40;;;;;;;6.00;3.80;;;;;;;;;;4973156;28;20050;-78
2023/06/08 13:55:07;;;;;;;5.22;3.63;;;;;;;;;;4973046;28;20039;-76
2023/06/08 13:57:32;;;;;;;8.13;4.10;;;;;;;;;;4970952;28;20058;-78
2023/06/08 13:59:59;;;;;;;11.13;4.10;;;;;;;;;;4978058;28;20058;-77
2023/06/08 14:02:25;;;;;;;7.35;4.30;;;;;;;;;;4991895;28;20030;-77
2023/06/08 14:04:50;;;;;;;7.53;3.70;;;;;;;;;;4992261;28;20084;-76
2023/06/08 14:07:16;;;;;;;11.30;4.13;;;;;;;;;;4993052;28;20083;-76
2023/06/08 14:09:41;;;;;;;7.28;3.53;;;;;;;;;;4996226;28;20048;-76
2023/06/08 14:12:08;;;;;;;8.65;3.80;;;;;;;;;;5008265;28;20040;-76
2023/06/08 14:14:33;;;;;;;6.15;3.78;;;;;;;;;;5010570;28;20022;-76
2023/06/08 14:16:59;;;;;;;4.70;3.40;;;;;;;;;;5013415;28;20054;-74
2023/06/08 14:19:24;;;;;;;7.90;3.70;;;;;;;;;;5011569;28;20164;-78
2023/06/08 14:21:50;;;;;;;6.05;3.58;;;;;;;;;;5012501;28;20052;-78
2023/06/08 14:24:15;;;;;;;7.93;3.70;;;;;;;;;;5012235;28;20038;-76
2023/06/08 14:26:41;;;;;;;5.15;2.95;;;;;;;;;;5011621;28;20366;-77
2023/06/08 14:29:08;;;;;;;4.97;3.35;;;;;;;;;;5010234;28;20124;-78
2023/06/08 14:31:34;;;;;;;5.32;3.72;;;;;;;;;;4994030;28;20045;-78
2023/06/08 14:34:00;;;;;;;9.32;4.78;;;;;;;;;;5013039;28;20111;-79
2023/06/08 14:36:25;;;;;;;7.78;3.83;;;;;;;;;;5014833;28;20022;-79
2023/06/08 14:38:51;;;;;;;6.93;4.10;;;;;;;;;;5019013;28;20017;-79